sensor_id;sensor_type;location;lat;lon;timestamp;temperature;humidity
23207;DHT22;11773;52.570;13.052;2022-09-12T00:01:42;16.30;99.90
23207;DHT22;11773;52.570;13.052;2022-09-12T00:04:13;16.30;99.90
23207;DHT22;11773;52.570;13.052;2022-09-12T00:06:43;16.30;99.90
23207;DHT22;11773;52.570;13.052;2022-09-12T00:09:13;16.20;99.90
23207;DHT22;11773;52.570;13.052;2022-09-12T00:11:45;16.10;99.90
23207;DHT22;11773;52.570;13.052;2022-09-12T00:14:17;16.20;99.90
23207;DHT22;11773;52.570;13.052;2022-09-12T00:16:46;16.00;99.90
23207;DHT22;11773;52.570;13.052;2022-09-12T00:19:16;15.90;99.90
23207;DHT22;11773;52.570;13.052;2022-09-12T00:21:45;16.00;99.90
23207;DHT22;11773;52.570;13.052;2022-09-12T00:24:15;16.00;99.90
23207;DHT22;11773;52.570;13.052;2022-09-12T00:26:44;15.90;99.90
23207;DHT22;11773;52.570;13.052;2022-09-12T00:29:16;15.80;99.90
23207;DHT22;11773;52.570;13.052;2022-09-12T00:31:48;15.80;99.90
23207;DHT22;11773;52.570;13.052;2022-09-12T00:34:17;15.80;99.90
23207;DHT22;11773;52.570;13.052;2022-09-12T00:36:47;15.70;99.90
23207;DHT22;11773;52.570;13.052;2022-09-12T00:39:16;15.80;99.90
23207;DHT22;11773;52.570;13.052;2022-09-12T00:41:46;15.70;99.90
23207;DHT22;11773;52.570;13.052;2022-09-12T00:47:09;15.70;99.90
23207;DHT22;11773;52.570;13.052;2022-09-12T00:50:07;15.60;99.90
23207;DHT22;11773;52.570;13.052;2022-09-12T00:58:12;15.50;99.90
23207;DHT22;11773;52.570;13.052;2022-09-12T01:00:42;15.40;99.90
23207;DHT22;11773;52.570;13.052;2022-09-12T01:03:16;15.50;99.90
23207;DHT22;11773;52.570;13.052;2022-09-12T01:06:23;15.40;99.90
23207;DHT22;11773;52.570;13.052;2022-09-12T01:08:57;15.40;99.90
23207;DHT22;11773;52.570;13.052;2022-09-12T01:11:34;15.40;99.90
23207;DHT22;11773;52.570;13.052;2022-09-12T01:14:07;15.40;99.90
23207;DHT22;11773;52.570;13.052;2022-09-12T01:16:37;15.40;99.90
23207;DHT22;11773;52.570;13.052;2022-09-12T01:22:54;15.40;99.90
23207;DHT22;11773;52.570;13.052;2022-09-12T01:31:18;15.20;99.90
23207;DHT22;11773;52.570;13.052;2022-09-12T01:34:04;15.10;99.90
23207;DHT22;11773;52.570;13.052;2022-09-12T01:39:28;15.10;99.90
23207;DHT22;11773;52.570;13.052;2022-09-12T01:44:53;15.00;99.90
23207;DHT22;11773;52.570;13.052;2022-09-12T01:47:28;15.00;99.90
23207;DHT22;11773;52.570;13.052;2022-09-12T01:50:07;14.80;99.90
23207;DHT22;11773;52.570;13.052;2022-09-12T01:55:29;14.90;99.90
23207;DHT22;11773;52.570;13.052;2022-09-12T01:58:11;14.90;99.90
23207;DHT22;11773;52.570;13.052;2022-09-12T02:00:49;14.90;99.90
23207;DHT22;11773;52.570;13.052;2022-09-12T02:03:17;14.80;99.90
23207;DHT22;11773;52.570;13.052;2022-09-12T02:06:02;14.80;99.90
23207;DHT22;11773;52.570;13.052;2022-09-12T02:08:42;14.70;99.90
23207;DHT22;11773;52.570;13.052;2022-09-12T02:11:10;14.70;99.90
23207;DHT22;11773;52.570;13.052;2022-09-12T02:13:59;14.70;99.90
23207;DHT22;11773;52.570;13.052;2022-09-12T02:16:41;14.70;99.90
23207;DHT22;11773;52.570;13.052;2022-09-12T02:19:18;14.50;99.90
23207;DHT22;11773;52.570;13.052;2022-09-12T02:21:55;14.60;99.90
23207;DHT22;11773;52.570;13.052;2022-09-12T02:24:29;14.70;99.90
23207;DHT22;11773;52.570;13.052;2022-09-12T02:27:04;14.70;99.90
23207;DHT22;11773;52.570;13.052;2022-09-12T02:29:35;14.70;99.90
23207;DHT22;11773;52.570;13.052;2022-09-12T02:32:11;14.60;99.90
23207;DHT22;11773;52.570;13.052;2022-09-12T02:35:10;14.50;99.90
23207;DHT22;11773;52.570;13.052;2022-09-12T02:37:58;14.50;99.90
23207;DHT22;11773;52.570;13.052;2022-09-12T02:40:32;14.50;99.90
23207;DHT22;11773;52.570;13.052;2022-09-12T02:43:04;14.50;99.90
23207;DHT22;11773;52.570;13.052;2022-09-12T02:45:35;14.50;99.90
23207;DHT22;11773;52.570;13.052;2022-09-12T02:48:25;14.40;99.90
23207;DHT22;11773;52.570;13.052;2022-09-12T02:50:56;14.40;99.90
23207;DHT22;11773;52.570;13.052;2022-09-12T02:53:26;14.50;99.90
23207;DHT22;11773;52.570;13.052;2022-09-12T02:55:56;14.40;99.90
23207;DHT22;11773;52.570;13.052;2022-09-12T02:58:28;14.50;99.90
23207;DHT22;11773;52.570;13.052;2022-09-12T03:04:15;14.50;99.90
23207;DHT22;11773;52.570;13.052;2022-09-12T03:07:06;14.50;99.90
23207;DHT22;11773;52.570;13.052;2022-09-12T03:13:03;14.30;99.90
23207;DHT22;11773;52.570;13.052;2022-09-12T03:19:01;14.30;99.90
23207;DHT22;11773;52.570;13.052;2022-09-12T03:21:46;14.30;99.90
23207;DHT22;11773;52.570;13.052;2022-09-12T03:24:29;14.20;99.90
23207;DHT22;11773;52.570;13.052;2022-09-12T03:27:32;14.20;99.90
23207;DHT22;11773;52.570;13.052;2022-09-12T03:29:59;14.20;99.90
23207;DHT22;11773;52.570;13.052;2022-09-12T03:32:49;14.20;99.90
23207;DHT22;11773;52.570;13.052;2022-09-12T03:35:22;14.20;99.90
23207;DHT22;11773;52.570;13.052;2022-09-12T03:37:52;14.10;99.90
23207;DHT22;11773;52.570;13.052;2022-09-12T03:40:22;14.00;99.90
23207;DHT22;11773;52.570;13.052;2022-09-12T03:42:51;14.00;99.90
23207;DHT22;11773;52.570;13.052;2022-09-12T03:45:21;14.00;99.90
23207;DHT22;11773;52.570;13.052;2022-09-12T03:47:50;14.00;99.90
23207;DHT22;11773;52.570;13.052;2022-09-12T03:50:20;14.00;99.90
23207;DHT22;11773;52.570;13.052;2022-09-12T03:52:50;14.00;99.90
23207;DHT22;11773;52.570;13.052;2022-09-12T03:55:20;14.10;99.90
23207;DHT22;11773;52.570;13.052;2022-09-12T03:57:53;14.00;99.90
23207;DHT22;11773;52.570;13.052;2022-09-12T04:00:23;14.00;99.90
23207;DHT22;11773;52.570;13.052;2022-09-12T04:02:54;14.00;99.90
23207;DHT22;11773;52.570;13.052;2022-09-12T04:05:25;13.80;99.90
23207;DHT22;11773;52.570;13.052;2022-09-12T04:07:54;13.80;99.90
23207;DHT22;11773;52.570;13.052;2022-09-12T04:10:24;13.70;99.90
23207;DHT22;11773;52.570;13.052;2022-09-12T04:12:54;13.70;99.90
23207;DHT22;11773;52.570;13.052;2022-09-12T04:15:23;13.70;99.90
23207;DHT22;11773;52.570;13.052;2022-09-12T04:17:53;13.70;99.90
23207;DHT22;11773;52.570;13.052;2022-09-12T04:20:22;13.90;99.90
23207;DHT22;11773;52.570;13.052;2022-09-12T04:22:52;13.80;99.90
23207;DHT22;11773;52.570;13.052;2022-09-12T04:25:21;13.70;99.90
23207;DHT22;11773;52.570;13.052;2022-09-12T04:27:51;13.60;99.90
23207;DHT22;11773;52.570;13.052;2022-09-12T04:30:20;13.70;99.90
23207;DHT22;11773;52.570;13.052;2022-09-12T04:32:50;13.60;99.90
23207;DHT22;11773;52.570;13.052;2022-09-12T04:35:19;13.60;99.90
23207;DHT22;11773;52.570;13.052;2022-09-12T04:37:48;13.50;99.90
23207;DHT22;11773;52.570;13.052;2022-09-12T04:40:18;13.50;99.90
23207;DHT22;11773;52.570;13.052;2022-09-12T04:42:48;13.50;99.90
23207;DHT22;11773;52.570;13.052;2022-09-12T04:45:17;13.60;99.90
23207;DHT22;11773;52.570;13.052;2022-09-12T04:47:47;13.60;99.90
23207;DHT22;11773;52.570;13.052;2022-09-12T04:50:17;13.60;99.90
23207;DHT22;11773;52.570;13.052;2022-09-12T04:52:50;13.40;99.90
23207;DHT22;11773;52.570;13.052;2022-09-12T04:55:21;13.40;99.90
23207;DHT22;11773;52.570;13.052;2022-09-12T04:57:52;13.50;99.90
23207;DHT22;11773;52.570;13.052;2022-09-12T05:00:21;13.50;99.90
23207;DHT22;11773;52.570;13.052;2022-09-12T05:02:51;13.50;99.90
23207;DHT22;11773;52.570;13.052;2022-09-12T05:05:20;13.40;99.90
23207;DHT22;11773;52.570;13.052;2022-09-12T05:07:50;13.40;99.90
23207;DHT22;11773;52.570;13.052;2022-09-12T05:10:19;13.30;99.90
23207;DHT22;11773;52.570;13.052;2022-09-12T05:12:50;13.40;99.90
23207;DHT22;11773;52.570;13.052;2022-09-12T05:15:20;13.30;99.90
23207;DHT22;11773;52.570;13.052;2022-09-12T05:17:49;13.20;99.90
23207;DHT22;11773;52.570;13.052;2022-09-12T05:20:18;13.20;99.90
23207;DHT22;11773;52.570;13.052;2022-09-12T05:22:48;13.30;99.90
23207;DHT22;11773;52.570;13.052;2022-09-12T05:25:17;13.40;99.90
23207;DHT22;11773;52.570;13.052;2022-09-12T05:27:49;13.60;99.90
23207;DHT22;11773;52.570;13.052;2022-09-12T05:30:20;13.40;99.90
23207;DHT22;11773;52.570;13.052;2022-09-12T05:32:49;13.30;99.90
23207;DHT22;11773;52.570;13.052;2022-09-12T05:35:19;13.10;99.90
23207;DHT22;11773;52.570;13.052;2022-09-12T05:37:48;13.10;99.90
23207;DHT22;11773;52.570;13.052;2022-09-12T05:40:17;13.30;99.90
23207;DHT22;11773;52.570;13.052;2022-09-12T05:42:48;13.20;99.90
23207;DHT22;11773;52.570;13.052;2022-09-12T05:45:17;13.30;99.90
23207;DHT22;11773;52.570;13.052;2022-09-12T05:47:47;13.30;99.90
23207;DHT22;11773;52.570;13.052;2022-09-12T05:50:17;13.30;99.90
23207;DHT22;11773;52.570;13.052;2022-09-12T05:52:46;13.30;99.90
23207;DHT22;11773;52.570;13.052;2022-09-12T05:55:17;13.40;99.90
23207;DHT22;11773;52.570;13.052;2022-09-12T05:57:46;13.40;99.90
23207;DHT22;11773;52.570;13.052;2022-09-12T06:00:17;13.50;99.90
23207;DHT22;11773;52.570;13.052;2022-09-12T06:02:53;13.60;99.90
23207;DHT22;11773;52.570;13.052;2022-09-12T06:05:23;13.50;99.90
23207;DHT22;11773;52.570;13.052;2022-09-12T06:07:52;13.60;99.90
23207;DHT22;11773;52.570;13.052;2022-09-12T06:10:22;13.80;99.90
23207;DHT22;11773;52.570;13.052;2022-09-12T06:12:52;14.30;99.90
23207;DHT22;11773;52.570;13.052;2022-09-12T06:15:22;14.60;99.90
23207;DHT22;11773;52.570;13.052;2022-09-12T06:17:51;15.10;99.90
23207;DHT22;11773;52.570;13.052;2022-09-12T06:20:21;15.40;99.90
23207;DHT22;11773;52.570;13.052;2022-09-12T06:22:52;15.80;99.90
23207;DHT22;11773;52.570;13.052;2022-09-12T06:25:22;16.30;99.90
23207;DHT22;11773;52.570;13.052;2022-09-12T06:27:51;16.70;99.90
23207;DHT22;11773;52.570;13.052;2022-09-12T06:30:21;17.00;99.90
23207;DHT22;11773;52.570;13.052;2022-09-12T06:32:52;17.40;99.90
23207;DHT22;11773;52.570;13.052;2022-09-12T06:35:23;17.70;99.90
23207;DHT22;11773;52.570;13.052;2022-09-12T06:37:52;18.10;99.90
23207;DHT22;11773;52.570;13.052;2022-09-12T06:40:22;18.40;99.90
23207;DHT22;11773;52.570;13.052;2022-09-12T06:42:52;18.60;99.90
23207;DHT22;11773;52.570;13.052;2022-09-12T06:45:22;18.80;99.90
23207;DHT22;11773;52.570;13.052;2022-09-12T06:47:53;19.10;99.90
23207;DHT22;11773;52.570;13.052;2022-09-12T06:50:23;19.40;99.90
23207;DHT22;11773;52.570;13.052;2022-09-12T06:52:52;19.60;99.90
23207;DHT22;11773;52.570;13.052;2022-09-12T06:55:22;19.70;99.90
23207;DHT22;11773;52.570;13.052;2022-09-12T06:57:53;20.00;99.90
23207;DHT22;11773;52.570;13.052;2022-09-12T07:00:23;20.20;99.90
23207;DHT22;11773;52.570;13.052;2022-09-12T07:02:55;20.30;99.90
23207;DHT22;11773;52.570;13.052;2022-09-12T07:05:24;20.50;99.90
23207;DHT22;11773;52.570;13.052;2022-09-12T07:07:54;20.70;99.90
23207;DHT22;11773;52.570;13.052;2022-09-12T07:10:24;20.80;99.90
23207;DHT22;11773;52.570;13.052;2022-09-12T07:12:55;20.80;99.90
23207;DHT22;11773;52.570;13.052;2022-09-12T07:15:25;20.90;99.90
23207;DHT22;11773;52.570;13.052;2022-09-12T07:17:55;21.00;99.90
23207;DHT22;11773;52.570;13.052;2022-09-12T07:20:24;21.10;99.90
23207;DHT22;11773;52.570;13.052;2022-09-12T07:22:54;21.30;99.90
23207;DHT22;11773;52.570;13.052;2022-09-12T07:25:23;21.30;99.90
23207;DHT22;11773;52.570;13.052;2022-09-12T07:27:53;21.40;99.90
23207;DHT22;11773;52.570;13.052;2022-09-12T07:30:22;21.60;99.90
23207;DHT22;11773;52.570;13.052;2022-09-12T07:32:55;21.60;99.90
23207;DHT22;11773;52.570;13.052;2022-09-12T07:35:24;21.60;99.90
23207;DHT22;11773;52.570;13.052;2022-09-12T07:37:54;21.60;99.90
23207;DHT22;11773;52.570;13.052;2022-09-12T07:40:23;21.70;99.90
23207;DHT22;11773;52.570;13.052;2022-09-12T07:42:53;21.70;99.90
23207;DHT22;11773;52.570;13.052;2022-09-12T07:45:22;21.70;99.90
23207;DHT22;11773;52.570;13.052;2022-09-12T07:47:53;21.70;99.90
23207;DHT22;11773;52.570;13.052;2022-09-12T07:50:23;21.60;99.90
23207;DHT22;11773;52.570;13.052;2022-09-12T07:52:53;21.20;99.90
23207;DHT22;11773;52.570;13.052;2022-09-12T07:55:23;20.90;99.90
23207;DHT22;11773;52.570;13.052;2022-09-12T07:57:52;21.00;99.90
23207;DHT22;11773;52.570;13.052;2022-09-12T08:00:22;21.10;99.90
23207;DHT22;11773;52.570;13.052;2022-09-12T08:02:52;21.20;99.90
23207;DHT22;11773;52.570;13.052;2022-09-12T08:05:23;21.10;99.90
23207;DHT22;11773;52.570;13.052;2022-09-12T08:07:53;21.00;99.90
23207;DHT22;11773;52.570;13.052;2022-09-12T08:10:24;21.10;99.90
23207;DHT22;11773;52.570;13.052;2022-09-12T08:12:54;20.90;99.90
23207;DHT22;11773;52.570;13.052;2022-09-12T08:15:23;21.00;99.90
23207;DHT22;11773;52.570;13.052;2022-09-12T08:17:52;20.90;99.90
23207;DHT22;11773;52.570;13.052;2022-09-12T08:20:22;21.00;99.90
23207;DHT22;11773;52.570;13.052;2022-09-12T08:22:53;21.10;99.90
23207;DHT22;11773;52.570;13.052;2022-09-12T08:25:23;21.10;99.90
23207;DHT22;11773;52.570;13.052;2022-09-12T08:27:52;21.10;99.90
23207;DHT22;11773;52.570;13.052;2022-09-12T08:30:22;21.10;99.90
23207;DHT22;11773;52.570;13.052;2022-09-12T08:32:51;21.20;99.90
23207;DHT22;11773;52.570;13.052;2022-09-12T08:35:21;21.20;99.90
23207;DHT22;11773;52.570;13.052;2022-09-12T08:37:50;21.10;99.90
23207;DHT22;11773;52.570;13.052;2022-09-12T08:40:21;21.20;99.90
23207;DHT22;11773;52.570;13.052;2022-09-12T08:43:11;21.10;99.90
23207;DHT22;11773;52.570;13.052;2022-09-12T08:45:50;21.00;99.90
23207;DHT22;11773;52.570;13.052;2022-09-12T08:48:17;20.90;99.90
23207;DHT22;11773;52.570;13.052;2022-09-12T08:50:47;20.90;99.90
23207;DHT22;11773;52.570;13.052;2022-09-12T08:53:20;21.00;99.90
23207;DHT22;11773;52.570;13.052;2022-09-12T08:55:56;21.10;99.90
23207;DHT22;11773;52.570;13.052;2022-09-12T08:58:28;21.20;99.90
23207;DHT22;11773;52.570;13.052;2022-09-12T09:01:07;20.90;99.90
23207;DHT22;11773;52.570;13.052;2022-09-12T09:13:24;21.20;99.90
23207;DHT22;11773;52.570;13.052;2022-09-12T09:16:33;21.20;99.90
23207;DHT22;11773;52.570;13.052;2022-09-12T09:19:16;21.30;99.90
23207;DHT22;11773;52.570;13.052;2022-09-12T09:22:16;21.20;99.90
23207;DHT22;11773;52.570;13.052;2022-09-12T09:24:36;21.20;99.90
23207;DHT22;11773;52.570;13.052;2022-09-12T09:30:02;21.30;99.90
23207;DHT22;11773;52.570;13.052;2022-09-12T09:32:37;21.50;99.90
23207;DHT22;11773;52.570;13.052;2022-09-12T09:35:17;21.40;99.90
23207;DHT22;11773;52.570;13.052;2022-09-12T09:38:07;21.30;99.90
23207;DHT22;11773;52.570;13.052;2022-09-12T09:43:19;21.30;99.90
23207;DHT22;11773;52.570;13.052;2022-09-12T09:45:52;21.50;99.90
23207;DHT22;11773;52.570;13.052;2022-09-12T09:48:27;21.40;99.90
23207;DHT22;11773;52.570;13.052;2022-09-12T09:51:00;21.50;99.90
23207;DHT22;11773;52.570;13.052;2022-09-12T09:53:37;21.50;99.90
23207;DHT22;11773;52.570;13.052;2022-09-12T09:56:26;21.10;99.90
23207;DHT22;11773;52.570;13.052;2022-09-12T09:59:09;21.10;99.90
23207;DHT22;11773;52.570;13.052;2022-09-12T10:01:49;21.40;99.90
23207;DHT22;11773;52.570;13.052;2022-09-12T10:04:34;21.40;99.90
23207;DHT22;11773;52.570;13.052;2022-09-12T10:07:20;21.70;99.90
23207;DHT22;11773;52.570;13.052;2022-09-12T10:10:13;21.80;99.90
23207;DHT22;11773;52.570;13.052;2022-09-12T10:12:38;21.90;99.90
23207;DHT22;11773;52.570;13.052;2022-09-12T10:15:20;22.10;99.90
23207;DHT22;11773;52.570;13.052;2022-09-12T10:17:53;21.90;99.90
23207;DHT22;11773;52.570;13.052;2022-09-12T10:20:44;21.70;99.90
23207;DHT22;11773;52.570;13.052;2022-09-12T10:26:13;22.00;99.90
23207;DHT22;11773;52.570;13.052;2022-09-12T10:28:49;22.10;99.90
23207;DHT22;11773;52.570;13.052;2022-09-12T10:31:34;22.10;99.90
23207;DHT22;11773;52.570;13.052;2022-09-12T10:34:09;22.00;99.90
23207;DHT22;11773;52.570;13.052;2022-09-12T10:36:38;22.20;99.90
23207;DHT22;11773;52.570;13.052;2022-09-12T10:39:11;22.10;99.90
23207;DHT22;11773;52.570;13.052;2022-09-12T10:41:42;22.20;99.90
23207;DHT22;11773;52.570;13.052;2022-09-12T10:44:14;22.20;99.90
23207;DHT22;11773;52.570;13.052;2022-09-12T10:46:46;22.20;99.90
23207;DHT22;11773;52.570;13.052;2022-09-12T10:49:26;22.10;99.90
23207;DHT22;11773;52.570;13.052;2022-09-12T10:52:15;22.20;99.90
23207;DHT22;11773;52.570;13.052;2022-09-12T10:54:47;22.30;99.90
23207;DHT22;11773;52.570;13.052;2022-09-12T11:00:21;22.30;99.90
23207;DHT22;11773;52.570;13.052;2022-09-12T11:03:14;22.40;99.90
23207;DHT22;11773;52.570;13.052;2022-09-12T11:05:59;22.30;99.90
23207;DHT22;11773;52.570;13.052;2022-09-12T11:14:42;22.30;99.90
23207;DHT22;11773;52.570;13.052;2022-09-12T11:20:25;22.30;99.90
23207;DHT22;11773;52.570;13.052;2022-09-12T11:23:01;22.30;99.90
23207;DHT22;11773;52.570;13.052;2022-09-12T11:25:42;22.60;99.90
23207;DHT22;11773;52.570;13.052;2022-09-12T11:28:37;22.70;99.90
23207;DHT22;11773;52.570;13.052;2022-09-12T11:32:08;22.90;99.90
23207;DHT22;11773;52.570;13.052;2022-09-12T11:34:10;22.90;99.90
23207;DHT22;11773;52.570;13.052;2022-09-12T11:37:12;22.90;99.90
23207;DHT22;11773;52.570;13.052;2022-09-12T11:39:42;22.70;99.90
23207;DHT22;11773;52.570;13.052;2022-09-12T11:42:15;22.50;99.90
23207;DHT22;11773;52.570;13.052;2022-09-12T11:44:52;22.80;99.90
23207;DHT22;11773;52.570;13.052;2022-09-12T11:47:22;22.90;99.90
23207;DHT22;11773;52.570;13.052;2022-09-12T11:49:55;22.90;99.90
23207;DHT22;11773;52.570;13.052;2022-09-12T11:52:31;23.00;99.90
23207;DHT22;11773;52.570;13.052;2022-09-12T11:55:10;23.00;99.90
23207;DHT22;11773;52.570;13.052;2022-09-12T11:57:44;23.00;99.90
23207;DHT22;11773;52.570;13.052;2022-09-12T12:00:40;22.80;99.90
23207;DHT22;11773;52.570;13.052;2022-09-12T12:08:48;22.60;99.90
23207;DHT22;11773;52.570;13.052;2022-09-12T12:11:43;22.90;99.90
23207;DHT22;11773;52.570;13.052;2022-09-12T12:14:24;22.80;99.90
23207;DHT22;11773;52.570;13.052;2022-09-12T12:16:54;22.90;99.90
23207;DHT22;11773;52.570;13.052;2022-09-12T12:19:36;23.00;99.90
23207;DHT22;11773;52.570;13.052;2022-09-12T12:22:17;22.80;99.90
23207;DHT22;11773;52.570;13.052;2022-09-12T12:24:58;22.90;99.90
23207;DHT22;11773;52.570;13.052;2022-09-12T12:27:50;22.90;99.90
23207;DHT22;11773;52.570;13.052;2022-09-12T12:38:35;23.10;99.90
23207;DHT22;11773;52.570;13.052;2022-09-12T12:41:41;23.10;99.90
23207;DHT22;11773;52.570;13.052;2022-09-12T12:43:52;23.00;99.90
23207;DHT22;11773;52.570;13.052;2022-09-12T12:46:26;23.10;99.90
23207;DHT22;11773;52.570;13.052;2022-09-12T12:51:54;23.10;99.90
23207;DHT22;11773;52.570;13.052;2022-09-12T12:54:28;23.10;99.90
23207;DHT22;11773;52.570;13.052;2022-09-12T12:59:49;23.00;99.90
23207;DHT22;11773;52.570;13.052;2022-09-12T13:02:25;23.10;99.90
23207;DHT22;11773;52.570;13.052;2022-09-12T13:04:58;23.00;99.90
23207;DHT22;11773;52.570;13.052;2022-09-12T13:07:36;23.10;99.90
23207;DHT22;11773;52.570;13.052;2022-09-12T13:10:07;23.10;99.90
23207;DHT22;11773;52.570;13.052;2022-09-12T13:12:46;23.00;99.90
23207;DHT22;11773;52.570;13.052;2022-09-12T13:18:13;23.00;99.90
23207;DHT22;11773;52.570;13.052;2022-09-12T13:20:58;22.90;99.90
23207;DHT22;11773;52.570;13.052;2022-09-12T13:23:36;23.00;99.90
23207;DHT22;11773;52.570;13.052;2022-09-12T13:26:23;23.10;99.90
23207;DHT22;11773;52.570;13.052;2022-09-12T13:31:53;23.00;99.90
23207;DHT22;11773;52.570;13.052;2022-09-12T13:37:27;23.10;99.90
23207;DHT22;11773;52.570;13.052;2022-09-12T13:40:15;23.00;99.90
23207;DHT22;11773;52.570;13.052;2022-09-12T13:42:46;23.00;99.90
23207;DHT22;11773;52.570;13.052;2022-09-12T13:45:26;23.00;99.90
23207;DHT22;11773;52.570;13.052;2022-09-12T13:48:01;23.10;99.90
23207;DHT22;11773;52.570;13.052;2022-09-12T13:50:39;22.90;99.90
23207;DHT22;11773;52.570;13.052;2022-09-12T13:53:16;23.10;99.90
23207;DHT22;11773;52.570;13.052;2022-09-12T13:55:52;23.10;99.90
23207;DHT22;11773;52.570;13.052;2022-09-12T13:58:30;23.10;99.90
23207;DHT22;11773;52.570;13.052;2022-09-12T14:03:52;23.20;99.90
23207;DHT22;11773;52.570;13.052;2022-09-12T14:06:49;23.20;99.90
23207;DHT22;11773;52.570;13.052;2022-09-12T14:09:26;23.10;99.90
23207;DHT22;11773;52.570;13.052;2022-09-12T14:12:18;23.10;99.90
23207;DHT22;11773;52.570;13.052;2022-09-12T14:14:50;23.10;99.90
23207;DHT22;11773;52.570;13.052;2022-09-12T14:17:31;23.00;99.90
23207;DHT22;11773;52.570;13.052;2022-09-12T14:20:05;23.10;99.90
23207;DHT22;11773;52.570;13.052;2022-09-12T14:22:45;23.10;99.90
23207;DHT22;11773;52.570;13.052;2022-09-12T14:25:19;23.10;99.90
23207;DHT22;11773;52.570;13.052;2022-09-12T14:27:53;23.20;99.90
23207;DHT22;11773;52.570;13.052;2022-09-12T14:30:26;23.20;99.90
23207;DHT22;11773;52.570;13.052;2022-09-12T14:35:50;23.20;99.90
23207;DHT22;11773;52.570;13.052;2022-09-12T14:38:24;23.10;99.90
23207;DHT22;11773;52.570;13.052;2022-09-12T14:41:01;22.90;99.90
23207;DHT22;11773;52.570;13.052;2022-09-12T14:43:35;22.80;99.90
23207;DHT22;11773;52.570;13.052;2022-09-12T14:48:57;22.90;99.90
23207;DHT22;11773;52.570;13.052;2022-09-12T14:51:45;22.90;99.90
23207;DHT22;11773;52.570;13.052;2022-09-12T14:57:15;23.00;99.90
23207;DHT22;11773;52.570;13.052;2022-09-12T15:00:10;22.90;99.90
23207;DHT22;11773;52.570;13.052;2022-09-12T15:02:41;22.70;99.90
23207;DHT22;11773;52.570;13.052;2022-09-12T15:05:20;22.80;99.90
23207;DHT22;11773;52.570;13.052;2022-09-12T15:07:53;22.70;99.90
23207;DHT22;11773;52.570;13.052;2022-09-12T15:10:35;22.70;99.90
23207;DHT22;11773;52.570;13.052;2022-09-12T15:13:14;22.60;99.90
23207;DHT22;11773;52.570;13.052;2022-09-12T15:15:51;22.60;99.90
23207;DHT22;11773;52.570;13.052;2022-09-12T15:18:24;22.60;99.90
23207;DHT22;11773;52.570;13.052;2022-09-12T15:20:59;22.50;99.90
23207;DHT22;11773;52.570;13.052;2022-09-12T15:23:41;22.40;99.90
23207;DHT22;11773;52.570;13.052;2022-09-12T15:26:17;22.40;99.90
23207;DHT22;11773;52.570;13.052;2022-09-12T15:28:50;22.30;99.90
23207;DHT22;11773;52.570;13.052;2022-09-12T15:31:32;22.40;99.90
23207;DHT22;11773;52.570;13.052;2022-09-12T15:34:00;22.40;99.90
23207;DHT22;11773;52.570;13.052;2022-09-12T15:36:30;22.20;99.90
23207;DHT22;11773;52.570;13.052;2022-09-12T15:39:00;22.30;99.90
23207;DHT22;11773;52.570;13.052;2022-09-12T15:41:34;22.20;99.90
23207;DHT22;11773;52.570;13.052;2022-09-12T15:44:06;22.10;99.90
23207;DHT22;11773;52.570;13.052;2022-09-12T15:46:37;22.10;99.90
23207;DHT22;11773;52.570;13.052;2022-09-12T15:49:07;22.10;99.90
23207;DHT22;11773;52.570;13.052;2022-09-12T15:51:37;22.00;99.90
23207;DHT22;11773;52.570;13.052;2022-09-12T15:54:08;22.00;99.90
23207;DHT22;11773;52.570;13.052;2022-09-12T15:56:39;21.80;99.90
23207;DHT22;11773;52.570;13.052;2022-09-12T15:59:09;21.80;99.90
23207;DHT22;11773;52.570;13.052;2022-09-12T16:01:38;21.80;99.90
23207;DHT22;11773;52.570;13.052;2022-09-12T16:04:22;21.70;99.90
23207;DHT22;11773;52.570;13.052;2022-09-12T16:06:53;21.90;99.90
23207;DHT22;11773;52.570;13.052;2022-09-12T16:09:24;21.80;99.90
23207;DHT22;11773;52.570;13.052;2022-09-12T16:11:54;21.60;99.90
23207;DHT22;11773;52.570;13.052;2022-09-12T16:14:23;21.60;99.90
23207;DHT22;11773;52.570;13.052;2022-09-12T16:16:53;21.60;99.90
23207;DHT22;11773;52.570;13.052;2022-09-12T16:19:26;21.60;99.90
23207;DHT22;11773;52.570;13.052;2022-09-12T16:21:55;21.50;99.90
23207;DHT22;11773;52.570;13.052;2022-09-12T16:24:25;21.50;99.90
23207;DHT22;11773;52.570;13.052;2022-09-12T16:26:54;21.40;99.90
23207;DHT22;11773;52.570;13.052;2022-09-12T16:29:25;21.30;99.90
23207;DHT22;11773;52.570;13.052;2022-09-12T16:31:55;21.30;99.90
23207;DHT22;11773;52.570;13.052;2022-09-12T16:34:24;21.30;99.90
23207;DHT22;11773;52.570;13.052;2022-09-12T16:36:54;21.40;99.90
23207;DHT22;11773;52.570;13.052;2022-09-12T16:39:23;21.30;99.90
23207;DHT22;11773;52.570;13.052;2022-09-12T16:41:53;21.20;99.90
23207;DHT22;11773;52.570;13.052;2022-09-12T16:44:22;21.20;99.90
23207;DHT22;11773;52.570;13.052;2022-09-12T16:46:51;21.10;99.90
23207;DHT22;11773;52.570;13.052;2022-09-12T16:49:21;21.00;99.90
23207;DHT22;11773;52.570;13.052;2022-09-12T16:51:50;20.90;99.90
23207;DHT22;11773;52.570;13.052;2022-09-12T16:54:20;20.90;99.90
23207;DHT22;11773;52.570;13.052;2022-09-12T16:56:50;20.90;99.90
23207;DHT22;11773;52.570;13.052;2022-09-12T16:59:19;20.80;99.90
23207;DHT22;11773;52.570;13.052;2022-09-12T17:01:49;20.80;99.90
23207;DHT22;11773;52.570;13.052;2022-09-12T17:04:18;20.70;99.90
23207;DHT22;11773;52.570;13.052;2022-09-12T17:06:50;20.70;99.90
23207;DHT22;11773;52.570;13.052;2022-09-12T17:09:19;20.70;99.90
23207;DHT22;11773;52.570;13.052;2022-09-12T17:11:49;20.80;99.90
23207;DHT22;11773;52.570;13.052;2022-09-12T17:14:19;20.70;99.90
23207;DHT22;11773;52.570;13.052;2022-09-12T17:16:49;20.60;99.90
23207;DHT22;11773;52.570;13.052;2022-09-12T17:19:24;20.60;99.90
23207;DHT22;11773;52.570;13.052;2022-09-12T17:21:56;20.50;99.90
23207;DHT22;11773;52.570;13.052;2022-09-12T17:24:26;20.50;99.90
23207;DHT22;11773;52.570;13.052;2022-09-12T17:26:55;20.50;99.90
23207;DHT22;11773;52.570;13.052;2022-09-12T17:29:25;20.50;99.90
23207;DHT22;11773;52.570;13.052;2022-09-12T17:31:55;20.40;99.90
23207;DHT22;11773;52.570;13.052;2022-09-12T17:34:24;20.30;99.90
23207;DHT22;11773;52.570;13.052;2022-09-12T17:36:54;20.30;99.90
23207;DHT22;11773;52.570;13.052;2022-09-12T17:39:23;20.20;99.90
23207;DHT22;11773;52.570;13.052;2022-09-12T17:41:53;20.10;99.90
23207;DHT22;11773;52.570;13.052;2022-09-12T17:44:24;20.10;99.90